Ocean Majesty — CQSC — position and weather

sailwx.info

Track history (hours):
 
Tides and Currents Weather Stations Pressure Air Temp Water Temp Dewpoint Dewpoint Depression Visibility Wind Speed Wind Dir Waves Ship Positions

Ocean Majesty

Last reported at 2018-Jun-20 11:31 UTC. Time now 2018-Jun-20 11:42 UTC.
Position N 57°47' E 007°48'.

Length 136 m; draft 6.3 m.

Type: Passenger vessel. MMSI: 255717000.

Date/timePositionNaut miles runAvg speedWind from/ knotsBaromVisibWave heightAir tempDewpointWater temp
2018-Jun-20 11:31N 57°47' E 007°48'917.5
2018-Jun-20 11:01N 57°48' E 008°04'10115.4
2018-Jun-20 04:27N 57°35' E 011°12'716.8
2018-Jun-20 04:00N 57°30' E 011°22'13414.2
2018-Jun-19 18:35N 55°17' E 011°04'214.0
2018-Jun-19 18:28N 55°15' E 011°05'1013.5
2018-Jun-19 17:45N 55°06' E 011°03'314.2
2018-Jun-19 17:30N 55°02' E 011°02'713.6
2018-Jun-19 17:00N 54°56' E 010°56'713.2
2018-Jun-19 16:30N 54°50' E 010°52'714.6
2018-Jun-19 16:00N 54°43' E 010°54'815.9
2018-Jun-19 15:31N 54°37' E 010°44'816.2
2018-Jun-19 15:00N 54°33' E 010°32'2 0.2
2018-Jun-19 03:29N 54°34' E 010°35'613.4
2018-Jun-19 03:00N 54°35' E 010°46'713.4
2018-Jun-19 02:30N 54°36' E 010°58'713.5
2018-Jun-19 02:00N 54°36' E 011°09'713.4
2018-Jun-19 01:30N 54°33' E 011°20'713.8
2018-Jun-19 01:00N 54°30' E 011°30'713.5
2018-Jun-19 00:30N 54°28' E 011°41'713.2
2018-Jun-19 00:00N 54°27' E 011°52'713.9
2018-Jun-18 23:30N 54°27' E 012°04'612.8
2018-Jun-18 23:00N 54°31' E 012°12'7113.6
2018-Jun-18 17:49N 55°03' E 014°01'513.3
2018-Jun-18 17:28N 55°06' E 014°08'613.8
2018-Jun-18 17:01N 55°11' E 014°15'713.8
2018-Jun-18 16:30N 55°17' E 014°22'713.7
2018-Jun-18 16:00N 55°22' E 014°30'1013.5
2018-Jun-18 15:18N 55°28' E 014°42'414.0
2018-Jun-18 15:00N 55°31' E 014°49'913.4
2018-Jun-18 14:21N 55°35' E 015°02'25513.8
2018-Jun-17 19:53N 59°15' E 019°01'4 9.5
2018-Jun-17 19:28N 59°17' E 018°54'510.6
2018-Jun-17 19:00N 59°20' E 018°47'510.1
2018-Jun-17 18:30N 59°23' E 018°38'510.8
2018-Jun-17 18:00N 59°26' E 018°29'2 4.9
2018-Jun-17 17:31N 59°24' E 018°26'3 5.6
2018-Jun-17 17:00N 59°22' E 018°23'5 9.5
2018-Jun-17 16:30N 59°21' E 018°14'4 8.3
2018-Jun-17 16:01N 59°19' E 018°07'1 1.2
2018-Jun-17 15:25N 59°19' E 018°05'0 0.0
2018-Jun-17 14:59N 59°19' E 018°05'0 0.0
2018-Jun-17 14:29N 59°19' E 018°05'0 0.0
2018-Jun-17 13:58N 59°19' E 018°05'0 0.0
2018-Jun-17 13:28N 59°19' E 018°05'0 0.0
2018-Jun-17 12:58N 59°19' E 018°05'0 0.0
2018-Jun-17 12:28N 59°19' E 018°05'0 0.0
2018-Jun-17 11:58N 59°19' E 018°05'0 0.0
2018-Jun-17 11:28N 59°19' E 018°05'0 0.0
2018-Jun-17 10:58N 59°19' E 018°05'0 0.0
2018-Jun-17 10:28N 59°19' E 018°05'0 0.0
2018-Jun-17 09:58N 59°19' E 018°05'0 0.0
2018-Jun-17 09:28N 59°19' E 018°05'0 0.0
2018-Jun-17 08:58N 59°19' E 018°05'0 0.0
2018-Jun-17 08:28N 59°19' E 018°05'0 0.0
2018-Jun-17 07:58N 59°19' E 018°05'0 0.0
2018-Jun-17 07:28N 59°19' E 018°05'0 0.0
2018-Jun-17 06:58N 59°19' E 018°05'0 0.0
2018-Jun-17 06:28N 59°19' E 018°05'0 0.0
2018-Jun-17 05:58N 59°19' E 018°05'1 3.2
2018-Jun-17 05:30N 59°19' E 018°08'510.5
2018-Jun-17 05:00N 59°22' E 018°17'5 9.7
2018-Jun-17 04:30N 59°21' E 018°26'5 9.0
2018-Jun-17 04:00N 59°26' E 018°23'5 9.3
2018-Jun-17 03:30N 59°24' E 018°32'511.0
2018-Jun-17 03:00N 59°23' E 018°42'611.2
2018-Jun-17 02:30N 59°19' E 018°50'510.0
2018-Jun-17 02:00N 59°16' E 018°58'611.3
2018-Jun-17 01:31N 59°15' E 019°09'612.7
2018-Jun-17 01:00N 59°16' E 019°21'612.9
2018-Jun-17 00:30N 59°17' E 019°34'612.8
2018-Jun-17 00:00N 59°18' E 019°46'612.7
2018-Jun-16 23:30N 59°19' E 019°58'612.7
2018-Jun-16 23:00N 59°21' E 020°10'712.5
2018-Jun-16 22:28N 59°24' E 020°22'510.2
2018-Jun-16 21:57N 59°23' E 020°33'1212.6
2018-Jun-16 21:02N 59°25' E 020°55'112.6
2018-Jun-16 20:59N 59°25' E 020°56'612.5
2018-Jun-16 20:30N 59°26' E 021°08'612.5
2018-Jun-16 20:00N 59°28' E 021°20'612.5
2018-Jun-16 19:30N 59°29' E 021°32'612.6
2018-Jun-16 19:00N 59°30' E 021°44'612.7
2018-Jun-16 18:30N 59°31' E 021°56'612.7
2018-Jun-16 18:00N 59°33' E 022°09'612.6
2018-Jun-16 17:30N 59°34' E 022°21'612.7
2018-Jun-16 17:00N 59°35' E 022°33'612.6
2018-Jun-16 16:30N 59°36' E 022°45'612.6
2018-Jun-16 16:00N 59°37' E 022°57'612.5
2018-Jun-16 15:30N 59°39' E 023°09'612.3
2018-Jun-16 15:00N 59°40' E 023°22'612.4
2018-Jun-16 14:30N 59°42' E 023°33'612.7
2018-Jun-16 14:00N 59°44' E 023°45'612.2
2018-Jun-16 13:30N 59°46' E 023°57'712.3
2018-Jun-16 12:54N 59°48' E 024°11'512.4
2018-Jun-16 12:30N 59°50' E 024°20'612.5
2018-Jun-16 12:00N 59°52' E 024°31'612.3
2018-Jun-16 11:30N 59°55' E 024°42'612.3
2018-Jun-16 11:00N 59°59' E 024°52'611.4
2018-Jun-16 10:30N 60°04' E 024°58'510.7
2018-Jun-16 10:00N 60°09' E 024°60'2 3.1
2018-Jun-16 09:30N 60°10' E 024°58'0 0.0
2018-Jun-16 08:57N 60°10' E 024°58'0 0.0
2018-Jun-16 08:30N 60°10' E 024°58'0 0.0
2018-Jun-16 08:00N 60°10' E 024°58'0 0.0
2018-Jun-16 07:30N 60°10' E 024°58'0 0.0
2018-Jun-16 07:00N 60°10' E 024°58'0 0.0
2018-Jun-16 06:30N 60°10' E 024°58'0 0.0
2018-Jun-16 06:00N 60°10' E 024°58'0 0.0
2018-Jun-16 05:30N 60°10' E 024°58'0 0.0
2018-Jun-16 05:00N 60°10' E 024°58'0 0.9
2018-Jun-16 04:31N 60°10' E 024°58'5 9.8
2018-Jun-16 04:00N 60°05' E 024°58'5 9.6
2018-Jun-16 03:30N 60°00' E 025°03'715.1
2018-Jun-16 03:01N 59°59' E 025°17'815.3
2018-Jun-16 02:30N 59°58' E 025°33'815.0
2018-Jun-16 02:00N 59°57' E 025°47'815.1
2018-Jun-16 01:30N 59°59' E 026°02'715.0
2018-Jun-16 01:00N 59°60' E 026°17'714.9
2018-Jun-16 00:30N 60°01' E 026°32'815.4
2018-Jun-16 00:00N 60°01' E 026°47'714.9
2018-Jun-15 23:30N 59°60' E 027°02'715.0
2018-Jun-15 23:00N 60°03' E 027°15'814.9
2018-Jun-15 22:29N 60°07' E 027°29'715.5
2018-Jun-15 22:01N 60°11' E 027°41'714.3
2018-Jun-15 21:30N 60°11' E 027°56'714.9
2018-Jun-15 21:00N 60°09' E 028°10'814.9
2018-Jun-15 20:30N 60°05' E 028°24'714.9
2018-Jun-15 20:00N 60°03' E 028°38'915.4
2018-Jun-15 19:26N 60°03' E 028°55'714.9
2018-Jun-15 19:00N 60°02' E 029°08'1912.1
2018-Jun-15 17:26N 59°59' E 029°46'510.4
2018-Jun-15 16:59N 59°57' E 029°54'511.0
2018-Jun-15 16:30N 59°55' E 030°04'4 8.8
2018-Jun-15 16:00N 59°53' E 030°12'3 6.2
2018-Jun-15 15:30N 59°56' E 030°16'0 0.3
2018-Jun-15 14:59N 59°56' E 030°16'0 0.0
2018-Jun-15 14:14N 59°56' E 030°16'0 0.0
2018-Jun-15 14:00N 59°56' E 030°16'0 0.0
2018-Jun-15 13:29N 59°56' E 030°16'0 0.0
2018-Jun-15 12:56N 59°56' E 030°16'0 0.0
2018-Jun-15 12:26N 59°56' E 030°16'0 0.0
2018-Jun-15 11:59N 59°56' E 030°16'0 0.0
2018-Jun-15 11:29N 59°56' E 030°16'0 0.0
2018-Jun-15 10:59N 59°56' E 030°16'0 0.0
2018-Jun-15 10:29N 59°56' E 030°16'0 0.0
2018-Jun-15 09:59N 59°56' E 030°16'0 0.0
2018-Jun-15 09:26N 59°56' E 030°16'0 0.0
2018-Jun-15 08:59N 59°56' E 030°16'0 0.0
2018-Jun-15 08:29N 59°56' E 030°16'0 0.0
2018-Jun-15 07:59N 59°56' E 030°16'0 0.0
2018-Jun-15 07:29N 59°56' E 030°16'0 0.0
2018-Jun-15 06:56N 59°56' E 030°16'0 0.0
2018-Jun-15 06:20N 59°56' E 030°16'0 0.0
2018-Jun-15 05:59N 59°56' E 030°16'0 0.0
2018-Jun-15 05:23N 59°56' E 030°16'0 0.0
2018-Jun-15 04:59N 59°56' E 030°16'0 0.0
2018-Jun-15 04:29N 59°56' E 030°16'0 0.0
2018-Jun-15 03:56N 59°56' E 030°16'0 0.0
2018-Jun-15 03:26N 59°56' E 030°16'0 0.0
2018-Jun-15 02:59N 59°56' E 030°16'0 0.0
2018-Jun-15 02:29N 59°56' E 030°16'0 0.0
2018-Jun-15 01:59N 59°56' E 030°16'0 0.0
2018-Jun-15 01:21N 59°56' E 030°16'0 0.0
2018-Jun-15 01:00N 59°56' E 030°16'0 0.0
2018-Jun-15 00:29N 59°56' E 030°16'0 0.0
2018-Jun-14 23:59N 59°56' E 030°16'0 0.0
2018-Jun-14 23:26N 59°56' E 030°16'0 0.0
2018-Jun-14 22:56N 59°56' E 030°16'0 0.0
2018-Jun-14 22:26N 59°56' E 030°16'0 0.0
2018-Jun-14 21:56N 59°56' E 030°16'0 0.0
2018-Jun-14 21:26N 59°56' E 030°16'0 0.0
2018-Jun-14 20:50N 59°56' E 030°16'0 0.0
2018-Jun-14 20:17N 59°56' E 030°16'0 0.0
2018-Jun-14 19:59N 59°56' E 030°16'0 0.0
2018-Jun-14 18:56N 59°56' E 030°16'0 0.0
2018-Jun-14 18:29N 59°56' E 030°16'0 0.0
2018-Jun-14 17:50N 59°56' E 030°16'0 0.0
2018-Jun-14 17:26N 59°56' E 030°16'0 0.0
2018-Jun-14 16:59N 59°56' E 030°16'0 0.0
2018-Jun-14 16:27N 59°56' E 030°16'0 0.0
2018-Jun-14 15:49N 59°56' E 030°16'0 0.0
2018-Jun-14 15:22N 59°56' E 030°16'0 0.0
2018-Jun-14 14:55N 59°56' E 030°16'0 0.0
2018-Jun-14 14:28N 59°56' E 030°16'0 0.0
2018-Jun-14 13:52N 59°56' E 030°16'0 0.0
2018-Jun-14 13:29N 59°56' E 030°16'0 0.0
2018-Jun-14 12:58N 59°56' E 030°16'0 0.0
2018-Jun-14 12:28N 59°56' E 030°16'0 0.0
2018-Jun-14 11:59N 59°56' E 030°16'0 0.0
2018-Jun-14 10:36N 59°56' E 030°16'0 0.0
2018-Jun-14 10:28N 59°56' E 030°16'0 0.0
2018-Jun-14 09:52N 59°56' E 030°16'0 0.0
2018-Jun-14 09:22N 59°56' E 030°16'0 0.0
2018-Jun-14 08:34N 59°56' E 030°16'0 0.0
2018-Jun-14 07:31N 59°56' E 030°16'0 0.0
2018-Jun-14 07:22N 59°56' E 030°16'0 0.0
2018-Jun-14 06:07N 59°56' E 030°16'0 0.5
2018-Jun-14 06:00N 59°56' E 030°16'3 6.8
2018-Jun-14 05:30N 59°53' E 030°12'4 7.1
2018-Jun-14 04:58N 59°54' E 030°05'510.9
2018-Jun-14 04:30N 59°56' E 029°55'611.0
2018-Jun-14 04:00N 59°59' E 029°45'710.0
2018-Jun-14 03:15N 60°01' E 029°31'410.5
2018-Jun-14 02:54N 60°02' E 029°24'513.5
2018-Jun-14 02:30N 60°02' E 029°13'611.3
2018-Jun-14 02:00N 60°02' E 029°02'612.6
2018-Jun-14 01:30N 60°02' E 028°49'613.0
2018-Jun-14 01:00N 60°02' E 028°36'713.8
2018-Jun-14 00:30N 60°04' E 028°23'714.6
2018-Jun-14 00:00N 60°08' E 028°10'814.9
2018-Jun-13 23:30N 60°10' E 027°56'714.2
2018-Jun-13 23:01N 60°09' E 027°42'714.5
2018-Jun-13 22:30N 60°06' E 027°29'814.9
2018-Jun-13 22:00N 60°02' E 027°16'715.1
2018-Jun-13 21:30N 59°58' E 027°03'714.7
2018-Jun-13 21:00N 59°59' E 026°49'714.9
2018-Jun-13 20:30N 59°58' E 026°34'815.1
2018-Jun-13 20:01N 59°56' E 026°19'814.7
2018-Jun-13 19:28N 59°54' E 026°04'714.8
2018-Jun-13 19:00N 59°52' E 025°51'714.5
2018-Jun-13 18:30N 59°50' E 025°37'714.7
2018-Jun-13 18:00N 59°48' E 025°23'714.6
2018-Jun-13 17:30N 59°46' E 025°09'714.7
2018-Jun-13 17:00N 59°44' E 024°55'714.1
2018-Jun-13 16:30N 59°39' E 024°44'611.9
2018-Jun-13 16:01N 59°33' E 024°43'611.6
2018-Jun-13 15:31N 59°28' E 024°46'1 1.5
2018-Jun-13 14:58N 59°27' E 024°46'0 0.0
2018-Jun-13 14:28N 59°27' E 024°46'0 0.0
2018-Jun-13 13:59N 59°27' E 024°46'0 0.0
2018-Jun-13 13:28N 59°27' E 024°46'0 0.0
2018-Jun-13 12:58N 59°27' E 024°46'0 0.0
2018-Jun-13 12:25N 59°27' E 024°46'0 0.0
2018-Jun-13 11:59N 59°27' E 024°46'0 0.0
2018-Jun-13 11:28N 59°27' E 024°46'0 0.0
2018-Jun-13 10:58N 59°27' E 024°46'0 0.0
2018-Jun-13 10:27N 59°27' E 024°46'2 5.0
2018-Jun-13 10:01N 59°29' E 024°45'510.8
2018-Jun-13 09:30N 59°30' E 024°34'612.2
2018-Jun-13 09:00N 59°30' E 024°22'912.6
2018-Jun-13 08:18N 59°29' E 024°05'1213.1
2018-Jun-13 07:24N 59°28' E 023°42'613.0
2018-Jun-13 06:58N 59°28' E 023°31'913.5
2018-Jun-13 06:20N 59°27' E 023°14'4313.7
2018-Jun-13 03:10N 59°08' E 021°57'614.1
2018-Jun-13 02:43N 59°03' E 021°48'314.5
2018-Jun-13 02:30N 59°01' E 021°45'247 6.8
2018-Jun-11 13:57N 55°04' E 019°40'715.6
2018-Jun-11 13:30N 54°57' E 019°38'815.8
2018-Jun-11 13:00N 54°49' E 019°38'714.1
2018-Jun-11 12:30N 54°42' E 019°43'8 0.8
2018-Jun-11 02:29N 54°38' E 019°55'2 4.2
2018-Jun-11 02:00N 54°39' E 019°52'510.3
2018-Jun-11 01:30N 54°41' E 019°44'712.0
2018-Jun-11 00:54N 54°42' E 019°31'512.4
2018-Jun-11 00:30N 54°41' E 019°23'612.5
2018-Jun-11 00:00N 54°41' E 019°12'612.0
2018-Jun-10 23:29N 54°41' E 019°02'511.2
2018-Jun-10 23:00N 54°37' E 018°55'612.2
2018-Jun-10 22:30N 54°32' E 018°48'612.1
2018-Jun-10 22:01N 54°27' E 018°41'3 6.5
2018-Jun-10 21:31N 54°24' E 018°40'0 0.0
2018-Jun-10 21:00N 54°24' E 018°40'0 0.0
2018-Jun-10 20:30N 54°24' E 018°40'0 0.0
2018-Jun-10 19:57N 54°24' E 018°40'0 0.0
2018-Jun-10 19:31N 54°24' E 018°40'0 0.0
2018-Jun-10 19:01N 54°24' E 018°40'0 0.0
2018-Jun-10 18:30N 54°24' E 018°40'0 0.0
2018-Jun-10 18:01N 54°24' E 018°40'0 0.0
2018-Jun-10 17:31N 54°24' E 018°40'0 0.0
2018-Jun-10 17:00N 54°24' E 018°40'0 0.0
2018-Jun-10 16:30N 54°24' E 018°40'0 0.0
2018-Jun-10 15:57N 54°24' E 018°40'0 0.0
2018-Jun-10 15:30N 54°24' E 018°40'0 0.0
2018-Jun-10 15:00N 54°24' E 018°40'0 0.0
2018-Jun-10 14:30N 54°24' E 018°40'0 0.0
2018-Jun-10 13:30N 54°24' E 018°40'0 0.0
2018-Jun-10 13:00N 54°24' E 018°40'0 0.0
2018-Jun-10 12:30N 54°24' E 018°40'0 0.0
2018-Jun-10 12:00N 54°24' E 018°40'  
Track history (hours):
 
Tides and Currents Weather Stations Pressure Air Temp Water Temp Dewpoint Dewpoint Depression Visibility Wind Speed Wind Dir Waves Ship Positions

Ocean Majesty

Last reported at 2018-Jun-20 11:31 UTC. Time now 2018-Jun-20 11:42 UTC.
Position N 57°47' E 007°48'.

Length 136 m; draft 6.3 m.

Type: Passenger vessel. MMSI: 255717000.

Date/timePositionNaut miles runAvg speedWind from/ knotsBaromVisibWave heightAir tempDewpointWater temp
2018-Jun-20 11:31N 57°47' E 007°48'917.5
2018-Jun-20 11:01N 57°48' E 008°04'10115.4
2018-Jun-20 04:27N 57°35' E 011°12'716.8
2018-Jun-20 04:00N 57°30' E 011°22'13414.2
2018-Jun-19 18:35N 55°17' E 011°04'214.0
2018-Jun-19 18:28N 55°15' E 011°05'1013.5
2018-Jun-19 17:45N 55°06' E 011°03'314.2
2018-Jun-19 17:30N 55°02' E 011°02'713.6
2018-Jun-19 17:00N 54°56' E 010°56'713.2
2018-Jun-19 16:30N 54°50' E 010°52'714.6
2018-Jun-19 16:00N 54°43' E 010°54'815.9
2018-Jun-19 15:31N 54°37' E 010°44'816.2
2018-Jun-19 15:00N 54°33' E 010°32'2 0.2
2018-Jun-19 03:29N 54°34' E 010°35'613.4
2018-Jun-19 03:00N 54°35' E 010°46'713.4
2018-Jun-19 02:30N 54°36' E 010°58'713.5
2018-Jun-19 02:00N 54°36' E 011°09'713.4
2018-Jun-19 01:30N 54°33' E 011°20'713.8
2018-Jun-19 01:00N 54°30' E 011°30'713.5
2018-Jun-19 00:30N 54°28' E 011°41'713.2
2018-Jun-19 00:00N 54°27' E 011°52'713.9
2018-Jun-18 23:30N 54°27' E 012°04'612.8
2018-Jun-18 23:00N 54°31' E 012°12'7113.6
2018-Jun-18 17:49N 55°03' E 014°01'513.3
2018-Jun-18 17:28N 55°06' E 014°08'613.8
2018-Jun-18 17:01N 55°11' E 014°15'713.8
2018-Jun-18 16:30N 55°17' E 014°22'713.7
2018-Jun-18 16:00N 55°22' E 014°30'1013.5
2018-Jun-18 15:18N 55°28' E 014°42'414.0
2018-Jun-18 15:00N 55°31' E 014°49'913.4
2018-Jun-18 14:21N 55°35' E 015°02'25513.8
2018-Jun-17 19:53N 59°15' E 019°01'4 9.5
2018-Jun-17 19:28N 59°17' E 018°54'510.6
2018-Jun-17 19:00N 59°20' E 018°47'510.1
2018-Jun-17 18:30N 59°23' E 018°38'510.8
2018-Jun-17 18:00N 59°26' E 018°29'2 4.9
2018-Jun-17 17:31N 59°24' E 018°26'3 5.6
2018-Jun-17 17:00N 59°22' E 018°23'5 9.5
2018-Jun-17 16:30N 59°21' E 018°14'4 8.3
2018-Jun-17 16:01N 59°19' E 018°07'1 1.2
2018-Jun-17 15:25N 59°19' E 018°05'0 0.0
2018-Jun-17 14:59N 59°19' E 018°05'0 0.0
2018-Jun-17 14:29N 59°19' E 018°05'0 0.0
2018-Jun-17 13:58N 59°19' E 018°05'0 0.0
2018-Jun-17 13:28N 59°19' E 018°05'0 0.0
2018-Jun-17 12:58N 59°19' E 018°05'0 0.0
2018-Jun-17 12:28N 59°19' E 018°05'0 0.0
2018-Jun-17 11:58N 59°19' E 018°05'0 0.0
2018-Jun-17 11:28N 59°19' E 018°05'0 0.0
2018-Jun-17 10:58N 59°19' E 018°05'0 0.0
2018-Jun-17 10:28N 59°19' E 018°05'0 0.0
2018-Jun-17 09:58N 59°19' E 018°05'0 0.0
2018-Jun-17 09:28N 59°19' E 018°05'0 0.0
2018-Jun-17 08:58N 59°19' E 018°05'0 0.0
2018-Jun-17 08:28N 59°19' E 018°05'0 0.0
2018-Jun-17 07:58N 59°19' E 018°05'0 0.0
2018-Jun-17 07:28N 59°19' E 018°05'0 0.0
2018-Jun-17 06:58N 59°19' E 018°05'0 0.0
2018-Jun-17 06:28N 59°19' E 018°05'0 0.0
2018-Jun-17 05:58N 59°19' E 018°05'1 3.2
2018-Jun-17 05:30N 59°19' E 018°08'510.5
2018-Jun-17 05:00N 59°22' E 018°17'5 9.7
2018-Jun-17 04:30N 59°21' E 018°26'5 9.0
2018-Jun-17 04:00N 59°26' E 018°23'5 9.3
2018-Jun-17 03:30N 59°24' E 018°32'511.0
2018-Jun-17 03:00N 59°23' E 018°42'611.2
2018-Jun-17 02:30N 59°19' E 018°50'510.0
2018-Jun-17 02:00N 59°16' E 018°58'611.3
2018-Jun-17 01:31N 59°15' E 019°09'612.7
2018-Jun-17 01:00N 59°16' E 019°21'612.9
2018-Jun-17 00:30N 59°17' E 019°34'612.8
2018-Jun-17 00:00N 59°18' E 019°46'612.7
2018-Jun-16 23:30N 59°19' E 019°58'612.7
2018-Jun-16 23:00N 59°21' E 020°10'712.5
2018-Jun-16 22:28N 59°24' E 020°22'510.2
2018-Jun-16 21:57N 59°23' E 020°33'1212.6
2018-Jun-16 21:02N 59°25' E 020°55'112.6
2018-Jun-16 20:59N 59°25' E 020°56'612.5
2018-Jun-16 20:30N 59°26' E 021°08'612.5
2018-Jun-16 20:00N 59°28' E 021°20'612.5
2018-Jun-16 19:30N 59°29' E 021°32'612.6
2018-Jun-16 19:00N 59°30' E 021°44'612.7
2018-Jun-16 18:30N 59°31' E 021°56'612.7
2018-Jun-16 18:00N 59°33' E 022°09'612.6
2018-Jun-16 17:30N 59°34' E 022°21'612.7
2018-Jun-16 17:00N 59°35' E 022°33'612.6
2018-Jun-16 16:30N 59°36' E 022°45'612.6
2018-Jun-16 16:00N 59°37' E 022°57'612.5
2018-Jun-16 15:30N 59°39' E 023°09'612.3
2018-Jun-16 15:00N 59°40' E 023°22'612.4
2018-Jun-16 14:30N 59°42' E 023°33'612.7
2018-Jun-16 14:00N 59°44' E 023°45'612.2
2018-Jun-16 13:30N 59°46' E 023°57'712.3
2018-Jun-16 12:54N 59°48' E 024°11'512.4
2018-Jun-16 12:30N 59°50' E 024°20'612.5
2018-Jun-16 12:00N 59°52' E 024°31'612.3
2018-Jun-16 11:30N 59°55' E 024°42'612.3
2018-Jun-16 11:00N 59°59' E 024°52'611.4
2018-Jun-16 10:30N 60°04' E 024°58'510.7
2018-Jun-16 10:00N 60°09' E 024°60'2 3.1
2018-Jun-16 09:30N 60°10' E 024°58'0 0.0
2018-Jun-16 08:57N 60°10' E 024°58'0 0.0
2018-Jun-16 08:30N 60°10' E 024°58'0 0.0
2018-Jun-16 08:00N 60°10' E 024°58'0 0.0
2018-Jun-16 07:30N 60°10' E 024°58'0 0.0
2018-Jun-16 07:00N 60°10' E 024°58'0 0.0
2018-Jun-16 06:30N 60°10' E 024°58'0 0.0
2018-Jun-16 06:00N 60°10' E 024°58'0 0.0
2018-Jun-16 05:30N 60°10' E 024°58'0 0.0
2018-Jun-16 05:00N 60°10' E 024°58'0 0.9
2018-Jun-16 04:31N 60°10' E 024°58'5 9.8
2018-Jun-16 04:00N 60°05' E 024°58'5 9.6
2018-Jun-16 03:30N 60°00' E 025°03'715.1
2018-Jun-16 03:01N 59°59' E 025°17'815.3
2018-Jun-16 02:30N 59°58' E 025°33'815.0
2018-Jun-16 02:00N 59°57' E 025°47'815.1
2018-Jun-16 01:30N 59°59' E 026°02'715.0
2018-Jun-16 01:00N 59°60' E 026°17'714.9
2018-Jun-16 00:30N 60°01' E 026°32'815.4
2018-Jun-16 00:00N 60°01' E 026°47'714.9
2018-Jun-15 23:30N 59°60' E 027°02'715.0
2018-Jun-15 23:00N 60°03' E 027°15'814.9
2018-Jun-15 22:29N 60°07' E 027°29'715.5
2018-Jun-15 22:01N 60°11' E 027°41'714.3
2018-Jun-15 21:30N 60°11' E 027°56'714.9
2018-Jun-15 21:00N 60°09' E 028°10'814.9
2018-Jun-15 20:30N 60°05' E 028°24'714.9
2018-Jun-15 20:00N 60°03' E 028°38'915.4
2018-Jun-15 19:26N 60°03' E 028°55'714.9
2018-Jun-15 19:00N 60°02' E 029°08'1912.1
2018-Jun-15 17:26N 59°59' E 029°46'510.4
2018-Jun-15 16:59N 59°57' E 029°54'511.0
2018-Jun-15 16:30N 59°55' E 030°04'4 8.8
2018-Jun-15 16:00N 59°53' E 030°12'3 6.2
2018-Jun-15 15:30N 59°56' E 030°16'0 0.3
2018-Jun-15 14:59N 59°56' E 030°16'0 0.0
2018-Jun-15 14:14N 59°56' E 030°16'0 0.0
2018-Jun-15 14:00N 59°56' E 030°16'0 0.0
2018-Jun-15 13:29N 59°56' E 030°16'0 0.0
2018-Jun-15 12:56N 59°56' E 030°16'0 0.0
2018-Jun-15 12:26N 59°56' E 030°16'0 0.0
2018-Jun-15 11:59N 59°56' E 030°16'0 0.0
2018-Jun-15 11:29N 59°56' E 030°16'0 0.0
2018-Jun-15 10:59N 59°56' E 030°16'0 0.0
2018-Jun-15 10:29N 59°56' E 030°16'0 0.0
2018-Jun-15 09:59N 59°56' E 030°16'0 0.0
2018-Jun-15 09:26N 59°56' E 030°16'0 0.0
2018-Jun-15 08:59N 59°56' E 030°16'0 0.0
2018-Jun-15 08:29N 59°56' E 030°16'0 0.0
2018-Jun-15 07:59N 59°56' E 030°16'0 0.0
2018-Jun-15 07:29N 59°56' E 030°16'0 0.0
2018-Jun-15 06:56N 59°56' E 030°16'0 0.0
2018-Jun-15 06:20N 59°56' E 030°16'0 0.0
2018-Jun-15 05:59N 59°56' E 030°16'0 0.0
2018-Jun-15 05:23N 59°56' E 030°16'0 0.0
2018-Jun-15 04:59N 59°56' E 030°16'0 0.0
2018-Jun-15 04:29N 59°56' E 030°16'0 0.0
2018-Jun-15 03:56N 59°56' E 030°16'0 0.0
2018-Jun-15 03:26N 59°56' E 030°16'0 0.0
2018-Jun-15 02:59N 59°56' E 030°16'0 0.0
2018-Jun-15 02:29N 59°56' E 030°16'0 0.0
2018-Jun-15 01:59N 59°56' E 030°16'0 0.0
2018-Jun-15 01:21N 59°56' E 030°16'0 0.0
2018-Jun-15 01:00N 59°56' E 030°16'0 0.0
2018-Jun-15 00:29N 59°56' E 030°16'0 0.0
2018-Jun-14 23:59N 59°56' E 030°16'0 0.0
2018-Jun-14 23:26N 59°56' E 030°16'0 0.0
2018-Jun-14 22:56N 59°56' E 030°16'0 0.0
2018-Jun-14 22:26N 59°56' E 030°16'0 0.0
2018-Jun-14 21:56N 59°56' E 030°16'0 0.0
2018-Jun-14 21:26N 59°56' E 030°16'0 0.0
2018-Jun-14 20:50N 59°56' E 030°16'0 0.0
2018-Jun-14 20:17N 59°56' E 030°16'0 0.0
2018-Jun-14 19:59N 59°56' E 030°16'0 0.0
2018-Jun-14 18:56N 59°56' E 030°16'0 0.0
2018-Jun-14 18:29N 59°56' E 030°16'0 0.0
2018-Jun-14 17:50N 59°56' E 030°16'0 0.0
2018-Jun-14 17:26N 59°56' E 030°16'0 0.0
2018-Jun-14 16:59N 59°56' E 030°16'0 0.0
2018-Jun-14 16:27N 59°56' E 030°16'0 0.0
2018-Jun-14 15:49N 59°56' E 030°16'0 0.0
2018-Jun-14 15:22N 59°56' E 030°16'0 0.0
2018-Jun-14 14:55N 59°56' E 030°16'0 0.0
2018-Jun-14 14:28N 59°56' E 030°16'0 0.0
2018-Jun-14 13:52N 59°56' E 030°16'0 0.0
2018-Jun-14 13:29N 59°56' E 030°16'0 0.0
2018-Jun-14 12:58N 59°56' E 030°16'0 0.0
2018-Jun-14 12:28N 59°56' E 030°16'0 0.0
2018-Jun-14 11:59N 59°56' E 030°16'0 0.0
2018-Jun-14 10:36N 59°56' E 030°16'0 0.0
2018-Jun-14 10:28N 59°56' E 030°16'0 0.0
2018-Jun-14 09:52N 59°56' E 030°16'0 0.0
2018-Jun-14 09:22N 59°56' E 030°16'0 0.0
2018-Jun-14 08:34N 59°56' E 030°16'0 0.0
2018-Jun-14 07:31N 59°56' E 030°16'0 0.0
2018-Jun-14 07:22N 59°56' E 030°16'0 0.0
2018-Jun-14 06:07N 59°56' E 030°16'0 0.5
2018-Jun-14 06:00N 59°56' E 030°16'3 6.8
2018-Jun-14 05:30N 59°53' E 030°12'4 7.1
2018-Jun-14 04:58N 59°54' E 030°05'510.9
2018-Jun-14 04:30N 59°56' E 029°55'611.0
2018-Jun-14 04:00N 59°59' E 029°45'710.0
2018-Jun-14 03:15N 60°01' E 029°31'410.5
2018-Jun-14 02:54N 60°02' E 029°24'513.5
2018-Jun-14 02:30N 60°02' E 029°13'611.3
2018-Jun-14 02:00N 60°02' E 029°02'612.6
2018-Jun-14 01:30N 60°02' E 028°49'613.0
2018-Jun-14 01:00N 60°02' E 028°36'713.8
2018-Jun-14 00:30N 60°04' E 028°23'714.6
2018-Jun-14 00:00N 60°08' E 028°10'814.9
2018-Jun-13 23:30N 60°10' E 027°56'714.2
2018-Jun-13 23:01N 60°09' E 027°42'714.5
2018-Jun-13 22:30N 60°06' E 027°29'814.9
2018-Jun-13 22:00N 60°02' E 027°16'715.1
2018-Jun-13 21:30N 59°58' E 027°03'714.7
2018-Jun-13 21:00N 59°59' E 026°49'714.9
2018-Jun-13 20:30N 59°58' E 026°34'815.1
2018-Jun-13 20:01N 59°56' E 026°19'814.7
2018-Jun-13 19:28N 59°54' E 026°04'714.8
2018-Jun-13 19:00N 59°52' E 025°51'714.5
2018-Jun-13 18:30N 59°50' E 025°37'714.7
2018-Jun-13 18:00N 59°48' E 025°23'714.6
2018-Jun-13 17:30N 59°46' E 025°09'714.7
2018-Jun-13 17:00N 59°44' E 024°55'714.1
2018-Jun-13 16:30N 59°39' E 024°44'611.9
2018-Jun-13 16:01N 59°33' E 024°43'611.6
2018-Jun-13 15:31N 59°28' E 024°46'1 1.5
2018-Jun-13 14:58N 59°27' E 024°46'0 0.0
2018-Jun-13 14:28N 59°27' E 024°46'0 0.0
2018-Jun-13 13:59N 59°27' E 024°46'0 0.0
2018-Jun-13 13:28N 59°27' E 024°46'0 0.0
2018-Jun-13 12:58N 59°27' E 024°46'0 0.0
2018-Jun-13 12:25N 59°27' E 024°46'0 0.0
2018-Jun-13 11:59N 59°27' E 024°46'0 0.0
2018-Jun-13 11:28N 59°27' E 024°46'0 0.0
2018-Jun-13 10:58N 59°27' E 024°46'0 0.0
2018-Jun-13 10:27N 59°27' E 024°46'2 5.0
2018-Jun-13 10:01N 59°29' E 024°45'510.8
2018-Jun-13 09:30N 59°30' E 024°34'612.2
2018-Jun-13 09:00N 59°30' E 024°22'912.6
2018-Jun-13 08:18N 59°29' E 024°05'1213.1
2018-Jun-13 07:24N 59°28' E 023°42'613.0
2018-Jun-13 06:58N 59°28' E 023°31'913.5
2018-Jun-13 06:20N 59°27' E 023°14'4313.7
2018-Jun-13 03:10N 59°08' E 021°57'614.1
2018-Jun-13 02:43N 59°03' E 021°48'314.5
2018-Jun-13 02:30N 59°01' E 021°45'247 6.8
2018-Jun-11 13:57N 55°04' E 019°40'715.6
2018-Jun-11 13:30N 54°57' E 019°38'815.8
2018-Jun-11 13:00N 54°49' E 019°38'714.1
2018-Jun-11 12:30N 54°42' E 019°43'8 0.8
2018-Jun-11 02:29N 54°38' E 019°55'2 4.2
2018-Jun-11 02:00N 54°39' E 019°52'510.3
2018-Jun-11 01:30N 54°41' E 019°44'712.0
2018-Jun-11 00:54N 54°42' E 019°31'512.4
2018-Jun-11 00:30N 54°41' E 019°23'612.5
2018-Jun-11 00:00N 54°41' E 019°12'612.0
2018-Jun-10 23:29N 54°41' E 019°02'511.2
2018-Jun-10 23:00N 54°37' E 018°55'612.2
2018-Jun-10 22:30N 54°32' E 018°48'612.1
2018-Jun-10 22:01N 54°27' E 018°41'3 6.5
2018-Jun-10 21:31N 54°24' E 018°40'0 0.0
2018-Jun-10 21:00N 54°24' E 018°40'0 0.0
2018-Jun-10 20:30N 54°24' E 018°40'0 0.0
2018-Jun-10 19:57N 54°24' E 018°40'0 0.0
2018-Jun-10 19:31N 54°24' E 018°40'0 0.0
2018-Jun-10 19:01N 54°24' E 018°40'0 0.0
2018-Jun-10 18:30N 54°24' E 018°40'0 0.0
2018-Jun-10 18:01N 54°24' E 018°40'0 0.0
2018-Jun-10 17:31N 54°24' E 018°40'0 0.0
2018-Jun-10 17:00N 54°24' E 018°40'0 0.0
2018-Jun-10 16:30N 54°24' E 018°40'0 0.0
2018-Jun-10 15:57N 54°24' E 018°40'0 0.0
2018-Jun-10 15:30N 54°24' E 018°40'0 0.0
2018-Jun-10 15:00N 54°24' E 018°40'0 0.0
2018-Jun-10 14:30N 54°24' E 018°40'0 0.0
2018-Jun-10 13:30N 54°24' E 018°40'0 0.0
2018-Jun-10 13:00N 54°24' E 018°40'0 0.0
2018-Jun-10 12:30N 54°24' E 018°40'0 0.0
2018-Jun-10 12:00N 54°24' E 018°40'  

Dump ship's entire track history